createdAt,value
2023-01-29T00:00:12.354Z,100245.61
2023-01-29T00:03:03.085Z,100249.94
2023-01-29T00:05:31.131Z,100250.27
2023-01-29T00:07:58.980Z,100245.92
2023-01-29T00:10:26.937Z,100248.48
2023-01-29T00:12:55.199Z,100248.84
2023-01-29T00:15:23.530Z,100248.34
2023-01-29T00:17:51.371Z,100252.52
2023-01-29T00:20:19.462Z,100256.65
2023-01-29T00:22:47.522Z,100252.34
2023-01-29T00:25:15.465Z,100252.52
2023-01-29T00:27:44.743Z,100248.70
2023-01-29T00:30:13.230Z,100245.42
2023-01-29T00:32:41.261Z,100236.59
2023-01-29T00:35:09.766Z,100235.38
2023-01-29T00:37:38.113Z,100233.14
2023-01-29T00:40:06.393Z,100223.63
2023-01-29T00:42:52.854Z,100216.19
2023-01-29T00:45:20.719Z,100210.14
2023-01-29T00:47:48.604Z,100212.58
2023-01-29T00:50:16.830Z,100208.95
2023-01-29T00:52:44.869Z,100202.90
2023-01-29T00:55:12.917Z,100196.14
2023-01-29T00:57:40.938Z,100186.45
2023-01-29T01:00:12.717Z,100178.14
2023-01-29T01:02:59.268Z,100184.17
2023-01-29T01:05:28.315Z,100193.66
2023-01-29T01:07:58.142Z,100194.33
2023-01-29T01:10:32.225Z,100182.19
2023-01-29T01:13:01.934Z,100180.09
2023-01-29T01:15:36.933Z,100177.84
2023-01-29T01:18:05.372Z,100172.84
2023-01-29T01:20:35.812Z,100168.52
2023-01-29T01:23:03.963Z,100164.39
2023-01-29T01:25:32.059Z,100169.77
2023-01-29T01:28:03.160Z,100182.06
2023-01-29T01:30:31.052Z,100182.04
2023-01-29T01:32:59.805Z,100180.11
2023-01-29T01:35:27.868Z,100171.29
2023-01-29T01:37:55.708Z,100178.55
2023-01-29T01:40:25.859Z,100179.57
2023-01-29T01:42:56.936Z,100178.34
2023-01-29T01:45:36.094Z,100172.27
2023-01-29T01:48:11.374Z,100170.02
2023-01-29T01:50:49.573Z,100167.77
2023-01-29T01:53:28.756Z,100161.72
2023-01-29T01:56:03.823Z,100157.76
2023-01-29T01:58:40.830Z,100158.46
2023-01-29T02:01:09.865Z,100163.15
2023-01-29T02:04:09.184Z,100161.77
2023-01-29T02:06:59.560Z,100162.32
2023-01-29T02:09:37.854Z,100153.15
2023-01-29T02:12:09.004Z,100158.17
2023-01-29T02:14:41.687Z,100167.33
2023-01-29T02:17:19.463Z,100167.13
2023-01-29T02:20:00.460Z,100165.55
2023-01-29T02:23:05.846Z,100162.09
2023-01-29T02:26:03.282Z,100165.14
2023-01-29T02:28:49.030Z,100169.10
2023-01-29T02:31:29.202Z,100172.89
2023-01-29T02:34:18.482Z,100182.21
2023-01-29T02:36:48.999Z,100185.51
2023-01-29T02:39:56.072Z,100181.38
2023-01-29T02:42:35.858Z,100172.59
2023-01-29T02:45:11.533Z,100163.77
2023-01-29T02:48:00.610Z,100165.52
2023-01-29T02:50:42.728Z,100166.23
2023-01-29T02:53:24.185Z,100165.19
2023-01-29T02:56:00.104Z,100162.79
2023-01-29T02:58:41.455Z,100160.70
2023-01-29T03:01:26.600Z,100162.77
2023-01-29T03:03:58.972Z,100164.67
2023-01-29T03:06:40.736Z,100167.25
2023-01-29T03:09:22.721Z,100171.23
2023-01-29T03:11:58.837Z,100168.63
2023-01-29T03:14:59.490Z,100164.48
2023-01-29T03:17:33.853Z,100158.08
2023-01-29T03:20:07.471Z,100157.92
2023-01-29T03:22:36.276Z,100158.98
2023-01-29T03:25:24.069Z,100158.80
2023-01-29T03:28:17.680Z,100161.39
2023-01-29T03:31:18.989Z,100169.18
2023-01-29T03:34:05.261Z,100167.11
2023-01-29T03:36:45.265Z,100173.69
2023-01-29T03:39:16.215Z,100176.27
2023-01-29T03:41:56.729Z,100172.80
2023-01-29T03:44:34.125Z,100170.02
2023-01-29T03:47:08.171Z,100161.71
2023-01-29T03:49:56.516Z,100146.84
2023-01-29T03:52:46.702Z,100149.92
2023-01-29T03:55:21.019Z,100152.70
2023-01-29T03:58:04.943Z,100150.45
2023-01-29T04:00:45.123Z,100149.08
2023-01-29T04:03:19.364Z,100152.84
2023-01-29T04:06:09.577Z,100150.92
2023-01-29T04:08:51.154Z,100151.76
2023-01-29T04:11:22.263Z,100153.27
2023-01-29T04:13:51.376Z,100151.37
2023-01-29T04:16:26.744Z,100143.77
2023-01-29T04:19:16.377Z,100134.96
2023-01-29T04:21:47.496Z,100133.22
2023-01-29T04:24:17.018Z,100134.27
2023-01-29T04:26:44.778Z,100138.42
2023-01-29T04:29:31.955Z,100139.11
2023-01-29T04:32:11.075Z,100132.00
2023-01-29T04:34:48.280Z,100123.88
2023-01-29T04:37:26.402Z,100125.27
2023-01-29T04:40:03.512Z,100125.12
2023-01-29T04:42:59.031Z,100116.33
2023-01-29T04:45:35.900Z,100108.20
2023-01-29T04:48:22.172Z,100096.98
2023-01-29T04:51:06.479Z,100098.68
2023-01-29T04:54:06.511Z,100094.35
2023-01-29T04:56:37.377Z,100093.14
2023-01-29T04:59:08.949Z,100088.77
2023-01-29T05:01:38.852Z,100085.83
2023-01-29T05:04:12.033Z,100080.27
2023-01-29T05:06:41.492Z,100084.05
2023-01-29T05:09:10.101Z,100090.09
2023-01-29T05:11:37.918Z,100091.11
2023-01-29T05:14:09.939Z,100091.46
2023-01-29T05:16:45.126Z,100090.94
2023-01-29T05:19:16.027Z,100085.77
2023-01-29T05:21:46.918Z,100079.73
2023-01-29T05:24:23.288Z,100074.73
2023-01-29T05:27:12.133Z,100069.89
2023-01-29T05:29:47.485Z,100067.82
2023-01-29T05:32:16.021Z,100062.92
2023-01-29T05:34:43.894Z,100063.57
2023-01-29T05:37:11.756Z,100063.86
2023-01-29T05:39:39.568Z,100057.41
2023-01-29T05:42:07.541Z,100054.06
2023-01-29T05:44:35.326Z,100057.80
2023-01-29T05:47:03.153Z,100055.14
2023-01-29T05:49:31.017Z,100056.45
2023-01-29T05:51:58.855Z,100053.41
2023-01-29T05:54:26.681Z,100062.84
2023-01-29T05:56:54.475Z,100065.55
2023-01-29T05:59:22.421Z,100057.08
2023-01-29T06:01:50.222Z,100048.63
2023-01-29T06:04:18.141Z,100045.33
2023-01-29T06:06:45.983Z,100046.82
2023-01-29T06:09:13.903Z,100050.89
2023-01-29T06:11:41.796Z,100049.82
2023-01-29T06:14:09.651Z,100049.42
2023-01-29T06:16:37.477Z,100047.09
2023-01-29T06:19:05.353Z,100048.75
2023-01-29T06:21:33.181Z,100051.30
2023-01-29T06:24:01.035Z,100062.45
2023-01-29T06:26:28.879Z,100068.09
2023-01-29T06:28:56.703Z,100069.63
2023-01-29T06:31:37.871Z,100070.65
2023-01-29T06:34:08.420Z,100073.39
2023-01-29T06:36:36.369Z,100079.05
2023-01-29T06:39:04.708Z,100087.83
2023-01-29T06:41:32.627Z,100091.92
2023-01-29T06:44:00.555Z,100096.36
2023-01-29T06:46:28.697Z,100098.60
2023-01-29T06:48:59.459Z,100103.77
2023-01-29T06:51:27.450Z,100112.20
2023-01-29T06:53:56.176Z,100118.36
2023-01-29T06:56:24.315Z,100118.88
2023-01-29T06:58:52.142Z,100121.17
2023-01-29T07:01:34.746Z,100121.92
2023-01-29T07:04:03.744Z,100127.88
2023-01-29T07:06:31.902Z,100133.13
2023-01-29T07:09:00.001Z,100139.40
2023-01-29T07:11:27.778Z,100141.58
2023-01-29T07:13:55.599Z,100146.21
2023-01-29T07:16:24.225Z,100145.64
2023-01-29T07:18:52.225Z,100146.95
2023-01-29T07:21:20.078Z,100156.38
2023-01-29T07:23:47.899Z,100155.30
2023-01-29T07:26:15.726Z,100151.77
2023-01-29T07:28:43.599Z,100146.14
2023-01-29T07:31:13.630Z,100149.30
2023-01-29T07:33:44.253Z,100146.61
2023-01-29T07:36:13.190Z,100140.08
2023-01-29T07:38:41.245Z,100131.33
2023-01-29T07:41:11.259Z,100125.34
2023-01-29T07:43:39.318Z,100122.27
2023-01-29T07:46:07.617Z,100128.89
2023-01-29T07:48:35.926Z,100133.79
2023-01-29T07:51:03.853Z,100132.66
2023-01-29T07:53:31.895Z,100125.30
2023-01-29T07:55:59.729Z,100115.69
2023-01-29T07:58:27.587Z,100107.45
2023-01-29T08:00:55.422Z,100108.80
2023-01-29T08:03:23.243Z,100102.62
2023-01-29T08:05:51.136Z,100088.93
2023-01-29T08:08:19.407Z,100079.73
2023-01-29T08:10:47.369Z,100081.13
2023-01-29T08:13:15.257Z,100083.58
2023-01-29T08:15:45.646Z,100084.28
2023-01-29T08:18:14.373Z,100078.22
2023-01-29T08:20:42.195Z,100075.80
2023-01-29T08:23:15.640Z,100071.64
2023-01-29T08:25:43.921Z,100069.22
2023-01-29T08:28:12.433Z,100062.29
2023-01-29T08:30:40.522Z,100057.95
2023-01-29T08:33:08.453Z,100051.73
2023-01-29T08:35:36.679Z,100036.83
2023-01-29T08:38:05.413Z,100031.11
2023-01-29T08:40:35.345Z,100033.36
2023-01-29T08:43:06.995Z,100028.67
2023-01-29T08:45:39.843Z,100015.51
2023-01-29T08:48:08.340Z,100007.52
2023-01-29T08:50:37.472Z,100010.46
2023-01-29T08:53:07.971Z,100012.70
2023-01-29T08:55:37.784Z,100013.54
2023-01-29T08:58:07.840Z,100010.73
2023-01-29T09:00:35.735Z,100004.29
2023-01-29T09:03:03.835Z,100006.52
2023-01-29T09:05:31.704Z,100009.95
2023-01-29T09:07:59.719Z,100001.42
2023-01-29T09:10:27.651Z,100003.13
2023-01-29T09:12:55.538Z,100005.02
2023-01-29T09:15:23.684Z,100011.42
2023-01-29T09:17:52.004Z,100014.54
2023-01-29T09:20:20.320Z,100016.05
2023-01-29T09:22:49.407Z,100015.65
2023-01-29T09:25:17.663Z,100013.66
2023-01-29T09:27:45.668Z,100010.83
2023-01-29T09:30:14.080Z,100009.35
2023-01-29T09:32:57.269Z,100009.64
2023-01-29T09:35:25.130Z,100009.73
2023-01-29T09:37:53.066Z,100007.77
2023-01-29T09:40:37.533Z,100007.56
2023-01-29T09:43:15.839Z,100001.63
2023-01-29T09:45:54.483Z,99998.10
2023-01-29T09:48:27.249Z,99989.34
2023-01-29T09:50:58.615Z,99987.53
2023-01-29T09:53:53.391Z,99984.52
2023-01-29T09:56:22.395Z,99983.38
2023-01-29T09:58:50.308Z,99978.46
2023-01-29T10:01:27.905Z,99978.60
2023-01-29T10:04:22.190Z,99973.86
2023-01-29T10:07:05.731Z,99978.33
2023-01-29T10:09:58.929Z,99976.71
2023-01-29T10:12:54.813Z,99965.67
2023-01-29T10:15:28.724Z,99956.14
2023-01-29T10:18:03.387Z,99946.80
2023-01-29T10:20:53.497Z,99943.41
2023-01-29T10:23:30.219Z,99940.92
2023-01-29T10:25:58.417Z,99937.35
2023-01-29T10:28:42.648Z,99936.41
2023-01-29T10:31:22.300Z,99938.27
2023-01-29T10:34:07.380Z,99941.05
2023-01-29T10:36:45.351Z,99931.61
2023-01-29T10:39:18.761Z,99927.56
2023-01-29T10:42:20.565Z,99925.23
2023-01-29T10:45:03.329Z,99923.73
2023-01-29T10:48:04.262Z,99922.05
2023-01-29T10:50:57.663Z,99917.81
2023-01-29T10:54:00.888Z,99916.38
2023-01-29T10:56:31.647Z,99912.77
2023-01-29T10:59:05.460Z,99908.11
2023-01-29T11:01:33.406Z,99902.14
2023-01-29T11:04:03.719Z,99901.16
2023-01-29T11:06:34.515Z,99898.66
2023-01-29T11:09:10.835Z,99893.49
2023-01-29T11:11:50.501Z,99890.73
2023-01-29T11:14:24.549Z,99889.50
2023-01-29T11:16:52.862Z,99891.57
2023-01-29T11:19:36.739Z,99886.11
2023-01-29T11:22:04.663Z,99877.55
2023-01-29T11:24:32.540Z,99873.09
2023-01-29T11:27:00.373Z,99868.09
2023-01-29T11:29:39.130Z,99868.08
2023-01-29T11:32:34.924Z,99866.55
2023-01-29T11:35:21.656Z,99864.02
2023-01-29T11:37:49.591Z,99863.77
2023-01-29T11:40:23.412Z,99855.20
2023-01-29T11:42:54.199Z,99856.91
2023-01-29T11:45:25.190Z,99849.68
2023-01-29T11:47:55.596Z,99847.60
2023-01-29T12:03:55.847Z,99838.94
2023-01-29T12:06:32.006Z,99837.76
2023-01-29T12:09:02.450Z,99834.42
2023-01-29T12:11:32.952Z,99828.83
2023-01-29T12:14:03.149Z,99822.20
2023-01-29T12:16:33.687Z,99816.95
2023-01-29T12:19:19.629Z,99811.88
2023-01-29T12:21:53.829Z,99804.20
2023-01-29T12:24:43.716Z,99800.33
2023-01-29T12:27:25.395Z,99794.97
2023-01-29T12:30:15.487Z,99795.12
2023-01-29T12:32:56.624Z,99790.31
2023-01-29T12:35:29.690Z,99790.43
2023-01-29T12:38:03.404Z,99783.46
2023-01-29T12:40:45.316Z,99777.45
2023-01-29T12:43:26.347Z,99772.52
2023-01-29T12:45:57.973Z,99763.08
2023-01-29T12:48:33.578Z,99759.77
2023-01-29T12:51:09.243Z,99757.59
2023-01-29T12:53:47.720Z,99755.29
2023-01-29T12:56:32.051Z,99749.83
2023-01-29T12:59:13.060Z,99738.13
2023-01-29T13:01:52.617Z,99731.68
2023-01-29T13:04:41.355Z,99732.58
2023-01-29T13:07:16.647Z,99729.08
2023-01-29T13:09:50.848Z,99729.34
2023-01-29T13:12:21.254Z,99727.50
2023-01-29T13:14:56.477Z,99733.39
2023-01-29T13:17:39.442Z,99730.77
2023-01-29T13:20:20.994Z,99735.17
2023-01-29T13:22:52.530Z,99739.78
2023-01-29T13:25:21.305Z,99742.78
2023-01-29T13:27:49.856Z,99736.98
2023-01-29T13:30:34.170Z,99736.52
2023-01-29T13:33:11.443Z,99734.77
2023-01-29T13:35:42.961Z,99733.04
2023-01-29T13:38:33.342Z,99740.82
2023-01-29T13:41:04.788Z,99747.52
2023-01-29T13:43:37.455Z,99744.33
2023-01-29T13:46:11.911Z,99743.45
2023-01-29T13:48:46.838Z,99746.93
2023-01-29T13:51:21.909Z,99744.48
2023-01-29T13:53:59.821Z,99743.77
2023-01-29T13:56:33.570Z,99744.48
2023-01-29T13:59:02.880Z,99743.44
2023-01-29T14:01:49.142Z,99744.02
2023-01-29T14:04:21.599Z,99740.45
2023-01-29T14:06:54.694Z,99732.64
2023-01-29T14:09:34.418Z,99730.63
2023-01-29T14:12:02.981Z,99725.14
2023-01-29T14:14:49.516Z,99720.52
2023-01-29T14:17:20.014Z,99717.09
2023-01-29T14:19:53.815Z,99715.23
2023-01-29T14:22:24.998Z,99714.39
2023-01-29T14:25:02.529Z,99719.27
2023-01-29T14:27:32.240Z,99718.56
2023-01-29T14:30:10.030Z,99721.02
2023-01-29T14:32:40.752Z,99723.16
2023-01-29T14:35:23.600Z,99720.95
2023-01-29T14:37:56.492Z,99721.52
2023-01-29T14:40:28.129Z,99724.50
2023-01-29T14:43:07.949Z,99725.23
2023-01-29T14:45:38.937Z,99725.98
2023-01-29T14:48:10.148Z,99729.33
2023-01-29T14:50:42.551Z,99732.16
2023-01-29T14:53:13.403Z,99733.92
2023-01-29T14:55:54.733Z,99726.82
2023-01-29T14:58:31.137Z,99725.60
2023-01-29T15:01:01.756Z,99730.48
2023-01-29T15:03:39.272Z,99734.32
2023-01-29T15:06:10.407Z,99726.52
2023-01-29T15:08:45.466Z,99723.74
2023-01-29T15:11:38.610Z,99710.04
2023-01-29T15:14:19.131Z,99703.85
2023-01-29T15:17:17.210Z,99706.88
2023-01-29T15:19:50.889Z,99707.64
2023-01-29T15:22:26.003Z,99715.50
2023-01-29T15:25:16.025Z,99717.80
2023-01-29T15:27:45.071Z,99716.30
2023-01-29T15:30:23.085Z,99712.52
2023-01-29T15:32:51.268Z,99715.70
2023-01-29T15:35:39.829Z,99713.44
2023-01-29T15:38:21.489Z,99716.73
2023-01-29T15:40:56.949Z,99720.20
2023-01-29T15:43:30.500Z,99725.41
2023-01-29T15:46:01.947Z,99726.30
2023-01-29T15:48:42.355Z,99727.86
2023-01-29T15:51:19.996Z,99728.44
2023-01-29T15:54:05.812Z,99731.43
2023-01-29T15:56:44.715Z,99730.08
2023-01-29T15:59:19.602Z,99730.79
2023-01-29T16:01:47.671Z,99729.27
2023-01-29T16:04:25.718Z,99730.02
2023-01-29T16:06:55.922Z,99732.15
2023-01-29T16:09:26.242Z,99729.21
2023-01-29T16:11:57.621Z,99728.17
2023-01-29T16:14:26.782Z,99728.55
2023-01-29T16:16:54.790Z,99726.13
2023-01-29T16:19:26.415Z,99724.20
2023-01-29T16:22:01.910Z,99720.20
2023-01-29T16:24:32.463Z,99716.54
2023-01-29T16:27:06.545Z,99716.16
2023-01-29T16:29:35.668Z,99717.92
2023-01-29T16:32:05.183Z,99719.85
2023-01-29T16:34:38.552Z,99713.45
2023-01-29T16:37:17.670Z,99708.80
2023-01-29T16:39:48.428Z,99705.01
2023-01-29T16:42:22.334Z,99704.33
2023-01-29T16:45:00.514Z,99705.36
2023-01-29T16:47:32.141Z,99703.27
2023-01-29T16:50:02.292Z,99701.92
2023-01-29T16:52:33.861Z,99699.85
2023-01-29T16:55:19.832Z,99703.34
2023-01-29T16:57:53.669Z,99701.58
2023-01-29T17:00:28.824Z,99694.82
2023-01-29T17:03:04.397Z,99692.06
2023-01-29T17:05:35.662Z,99687.54
2023-01-29T17:08:04.787Z,99683.71
2023-01-29T17:10:33.754Z,99681.46
2023-01-29T17:13:18.399Z,99675.41
2023-01-29T17:15:47.000Z,99669.55
2023-01-29T17:18:23.855Z,99670.95
2023-01-29T17:20:55.057Z,99672.19
2023-01-29T17:23:23.577Z,99671.48
2023-01-29T17:25:51.850Z,99666.09
2023-01-29T17:28:19.736Z,99662.79
2023-01-29T17:31:00.220Z,99659.82
2023-01-29T17:33:33.998Z,99658.55
2023-01-29T17:36:02.020Z,99654.38
2023-01-29T17:38:30.076Z,99655.46
2023-01-29T17:41:03.704Z,99651.16
2023-01-29T17:43:31.508Z,99648.23
2023-01-29T17:45:59.548Z,99650.52
2023-01-29T17:48:29.306Z,99651.09
2023-01-29T17:51:00.615Z,99646.46
2023-01-29T17:53:44.203Z,99646.52
2023-01-29T17:56:18.094Z,99646.06
2023-01-29T17:58:46.111Z,99642.47
2023-01-29T18:01:14.083Z,99645.43
2023-01-29T18:03:42.098Z,99644.55
2023-01-29T18:06:12.653Z,99639.31
2023-01-29T18:08:40.703Z,99633.63
2023-01-29T18:11:11.342Z,99630.54
2023-01-29T18:13:41.909Z,99629.88
2023-01-29T18:16:09.963Z,99627.98
2023-01-29T18:18:37.893Z,99621.63
2023-01-29T18:21:06.363Z,99619.43
2023-01-29T18:23:34.353Z,99618.77
2023-01-29T18:26:02.234Z,99615.71
2023-01-29T18:28:31.191Z,99620.40
2023-01-29T18:31:02.923Z,99621.98
2023-01-29T18:33:31.453Z,99617.47
2023-01-29T18:35:59.313Z,99615.38
2023-01-29T18:38:27.612Z,99619.36
2023-01-29T18:41:03.249Z,99617.45
2023-01-29T18:43:31.183Z,99615.21
2023-01-29T18:45:59.929Z,99618.20
2023-01-29T18:48:27.873Z,99619.80
2023-01-29T18:50:55.843Z,99618.95
2023-01-29T18:53:23.829Z,99615.67
2023-01-29T18:56:04.375Z,99610.15
2023-01-29T18:58:35.676Z,99605.33
2023-01-29T19:01:11.861Z,99603.10
2023-01-29T19:03:41.477Z,99600.33
2023-01-29T19:06:11.242Z,99598.09
2023-01-29T19:08:40.734Z,99592.75
2023-01-29T19:11:09.083Z,99588.79
2023-01-29T19:13:38.183Z,99583.10
2023-01-29T19:16:09.056Z,99577.89
2023-01-29T19:18:37.042Z,99574.74
2023-01-29T19:21:10.619Z,99572.83
2023-01-29T19:23:39.080Z,99574.92
2023-01-29T19:26:07.063Z,99577.54
2023-01-29T19:28:35.813Z,99584.48
2023-01-29T19:31:03.938Z,99580.69
2023-01-29T19:33:32.200Z,99582.05
2023-01-29T19:36:00.215Z,99582.77
2023-01-29T19:38:28.671Z,99581.21
2023-01-29T19:40:59.027Z,99577.39
2023-01-29T19:43:30.857Z,99575.69
2023-01-29T19:46:01.012Z,99570.33
2023-01-29T19:48:29.474Z,99564.97
2023-01-29T19:50:59.530Z,99558.89
2023-01-29T19:53:28.927Z,99552.84
2023-01-29T19:56:03.881Z,99544.71
2023-01-29T19:58:33.164Z,99538.13
2023-01-29T20:01:07.384Z,99529.46
2023-01-29T20:03:35.465Z,99522.55
2023-01-29T20:06:05.331Z,99520.68
2023-01-29T20:08:34.191Z,99519.52
2023-01-29T20:11:02.979Z,99519.77
2023-01-29T20:13:32.453Z,99513.56
2023-01-29T20:16:05.333Z,99510.34
2023-01-29T20:18:33.843Z,99508.16
2023-01-29T20:21:07.015Z,99502.52
2023-01-29T20:23:38.416Z,99505.31
2023-01-29T20:26:14.111Z,99504.80
2023-01-29T20:28:43.253Z,99499.31
2023-01-29T20:31:11.295Z,99499.55
2023-01-29T20:33:40.427Z,99497.50
2023-01-29T20:36:11.051Z,99496.67
2023-01-29T20:38:39.040Z,99495.31
2023-01-29T20:41:09.642Z,99492.58
2023-01-29T20:43:37.622Z,99491.04
2023-01-29T20:46:06.083Z,99486.05
2023-01-29T20:48:34.109Z,99481.77
2023-01-29T20:51:09.366Z,99478.34
2023-01-29T20:53:37.424Z,99474.05
2023-01-29T20:56:05.955Z,99477.34
2023-01-29T20:58:34.047Z,99478.56
2023-01-29T21:01:06.764Z,99474.58
2023-01-29T21:03:34.704Z,99473.02
2023-01-29T21:06:02.603Z,99468.36
2023-01-29T21:08:30.570Z,99459.73
2023-01-29T21:10:58.603Z,99460.25
2023-01-29T21:13:26.571Z,99460.58
2023-01-29T21:15:54.451Z,99455.23
2023-01-29T21:18:22.634Z,99450.90
2023-01-29T21:20:50.590Z,99445.20
2023-01-29T21:23:19.121Z,99443.16
2023-01-29T21:25:48.159Z,99443.52
2023-01-29T21:28:16.759Z,99439.40
2023-01-29T21:30:45.291Z,99439.22
2023-01-29T21:33:13.328Z,99436.46
2023-01-29T21:35:41.189Z,99433.19
2023-01-29T21:38:09.342Z,99423.70
2023-01-29T21:40:37.234Z,99421.64
2023-01-29T21:43:15.447Z,99415.42
2023-01-29T21:45:43.829Z,99411.98
2023-01-29T21:48:11.855Z,99406.96
2023-01-29T21:50:39.786Z,99405.58
2023-01-29T21:53:07.903Z,99404.20
2023-01-29T21:55:35.786Z,99405.75
2023-01-29T21:58:04.414Z,99406.44
2023-01-29T22:00:32.849Z,99403.16
2023-01-29T22:03:00.899Z,99399.55
2023-01-29T22:05:31.424Z,99396.11
2023-01-29T22:07:59.293Z,99395.27
2023-01-29T22:10:28.631Z,99392.34
2023-01-29T22:12:56.725Z,99385.46
2023-01-29T22:15:24.576Z,99377.52
2023-01-29T22:17:52.545Z,99372.52
2023-01-29T22:20:20.886Z,99366.31
2023-01-29T22:22:48.838Z,99363.36
2023-01-29T22:25:20.077Z,99365.61
2023-01-29T22:27:48.275Z,99366.13
2023-01-29T22:30:16.846Z,99360.95
2023-01-29T22:32:45.016Z,99357.33
2023-01-29T22:35:12.838Z,99353.54
2023-01-29T22:37:40.844Z,99349.94
2023-01-29T22:40:09.804Z,99343.21
2023-01-29T22:42:37.754Z,99335.98
2023-01-29T22:45:06.082Z,99328.55
2023-01-29T22:47:34.024Z,99319.77
2023-01-29T22:50:02.536Z,99310.27
2023-01-29T22:52:38.332Z,99303.55
2023-01-29T22:55:08.123Z,99296.31
2023-01-29T22:57:37.153Z,99288.88
2023-01-29T23:00:08.134Z,99284.55
2023-01-29T23:02:36.552Z,99282.48
2023-01-29T23:05:04.937Z,99277.13
2023-01-29T23:07:33.176Z,99273.32
2023-01-29T23:10:01.032Z,99268.48
2023-01-29T23:12:29.307Z,99260.70
2023-01-29T23:14:57.316Z,99262.10
2023-01-29T23:17:25.175Z,99260.05
2023-01-29T23:19:53.036Z,99248.66
2023-01-29T23:22:21.092Z,99246.27
2023-01-29T23:24:48.951Z,99242.83
2023-01-29T23:27:16.932Z,99231.11
2023-01-29T23:29:47.231Z,99226.48
2023-01-29T23:32:18.472Z,99223.38
2023-01-29T23:34:46.372Z,99215.48
2023-01-29T23:37:14.411Z,99211.70
2023-01-29T23:39:42.307Z,99214.61
2023-01-29T23:42:10.231Z,99207.88
2023-01-29T23:44:38.183Z,99195.78
2023-01-29T23:47:06.421Z,99186.30
2023-01-29T23:49:34.714Z,99170.27
2023-01-29T23:52:03.183Z,99170.11
2023-01-29T23:54:31.025Z,99162.00
2023-01-29T23:56:58.950Z,99154.92
2023-01-29T23:59:28.845Z,99148.35
